Wyoming, Michigan
Current Conditions -  °F | °C
As of 6:53 AM on Thursday 18 Dec 2014 (Local Time) from KGRR Reporting Station
Overcast Overcast  
Wind Chill: 22°   Ceiling: 1700
Heat Index: 30°   Visibility: 10mi
Dew Point: 25°   Wind: 9mph
Humidity: 82%   Direction: 270°W
Pressure: 30.2"   Gusts: NA
Location:  42.91°N, 85.69°W
Report Text: KGRR 181153Z 27008KT 10SM BKN017 OVC032 M01/M04 A3020 RMK AO2 SLP236 T10111039 11011 21017 55003
Loading
Personal Weather Stations






























Interactive Weather Map New forecast layout! Learn more

10-Day Weather Forecast

Advertisements
Track Severe Weather on mobile